Time;durP1;ratioP1;P1;durP2;ratioP2;P2;SDS_P1;SDS_P2;PMS_P1;PMS_P2;Temp;Humidity;BMP_temperature;BMP_pressure;BME280_temperature;BME280_humidity;BME280_pressure;Samples;Min_cycle;Max_cycle;Signal;HPM_P1;HPM_P2
2023/03/18 00:00:17;;;;;;;2.22;1.15;;;21.50;37.40;;;;;;5053081;28;20448;-49
2023/03/18 00:02:44;;;;;;;2.00;1.15;;;21.50;37.40;;;;;;5047559;28;20029;-52
2023/03/18 00:05:11;;;;;;;3.63;1.42;;;21.40;37.40;;;;;;5050902;28;20371;-51
2023/03/18 00:07:37;;;;;;;2.13;1.13;;;21.40;37.40;;;;;;5047805;28;20052;-53
2023/03/18 00:10:05;;;;;;;2.63;1.38;;;21.40;37.40;;;;;;5053007;28;20036;-56
2023/03/18 00:12:32;;;;;;;3.35;1.20;;;21.40;37.40;;;;;;5053304;28;20032;-51
2023/03/18 00:14:58;;;;;;;2.10;1.35;;;21.40;37.40;;;;;;5050359;28;20118;-49
2023/03/18 00:17:24;;;;;;;3.28;1.40;;;21.40;37.40;;;;;;5049749;28;20481;-53
2023/03/18 00:19:50;;;;;;;2.63;1.40;;;21.40;37.40;;;;;;5052002;28;20107;-54
2023/03/18 00:22:17;;;;;;;2.25;1.35;;;21.40;37.40;;;;;;5054211;28;20115;-51
2023/03/18 00:24:43;;;;;;;2.78;1.50;;;21.40;37.40;;;;;;5052206;28;20029;-54
2023/03/18 00:27:09;;;;;;;2.63;1.40;;;21.40;37.40;;;;;;5052746;28;20060;-55
2023/03/18 00:29:35;;;;;;;2.95;1.38;;;21.40;37.40;;;;;;5052088;28;20163;-55
2023/03/18 00:32:01;;;;;;;1.90;1.23;;;21.40;37.50;;;;;;5049956;28;20025;-52
2023/03/18 00:34:27;;;;;;;2.90;1.60;;;21.40;37.50;;;;;;5048945;28;20033;-56
2023/03/18 00:36:55;;;;;;;2.47;1.58;;;21.40;37.50;;;;;;5049993;28;20033;-56
2023/03/18 00:39:25;;;;;;;2.50;1.70;;;21.30;37.50;;;;;;5051391;28;20029;-53
2023/03/18 00:41:55;;;;;;;3.05;1.48;;;21.40;37.50;;;;;;5050652;28;20082;-54
2023/03/18 00:44:22;;;;;;;2.05;1.45;;;21.40;37.50;;;;;;5050443;28;20017;-51
2023/03/18 00:46:48;;;;;;;2.05;1.23;;;21.30;37.50;;;;;;5047708;28;20025;-54
2023/03/18 00:49:15;;;;;;;3.03;1.45;;;21.30;37.50;;;;;;5048129;28;20032;-53
2023/03/18 00:51:41;;;;;;;2.35;1.50;;;21.30;37.50;;;;;;5047168;28;20448;-53
2023/03/18 00:54:11;;;;;;;3.35;1.45;;;21.30;37.60;;;;;;5050205;28;20250;-52
2023/03/18 00:56:38;;;;;;;3.15;1.60;;;21.30;37.60;;;;;;5051315;28;20467;-50
2023/03/18 00:59:06;;;;;;;2.78;1.40;;;21.30;37.60;;;;;;5055438;28;20031;-52
2023/03/18 01:01:32;;;;;;;3.50;1.42;;;21.30;37.60;;;;;;5051148;28;20202;-53
2023/03/18 01:03:59;;;;;;;2.35;1.70;;;21.30;37.70;;;;;;5072661;28;20090;-51
2023/03/18 01:06:29;;;;;;;3.55;1.42;;;21.30;37.70;;;;;;5049838;28;20017;-53
2023/03/18 01:08:57;;;;;;;2.05;1.33;;;21.30;37.70;;;;;;5043939;28;20107;-51
2023/03/18 01:11:24;;;;;;;3.30;1.60;;;21.30;37.70;;;;;;5049314;28;20403;-53
2023/03/18 01:13:51;;;;;;;2.47;1.50;;;21.30;37.70;;;;;;5051881;28;20033;-53
2023/03/18 01:16:18;;;;;;;3.55;1.50;;;21.30;37.70;;;;;;5050370;28;20098;-52
2023/03/18 01:18:45;;;;;;;2.97;1.60;;;21.30;38.40;;;;;;5048609;28;20193;-52
2023/03/18 01:21:12;;;;;;;4.18;1.98;;;21.30;37.80;;;;;;5048533;28;20083;-54
2023/03/18 01:23:45;;;;;;;3.30;1.40;;;21.30;37.80;;;;;;5049830;28;20058;-50
2023/03/18 01:26:12;;;;;;;2.15;1.40;;;21.20;37.90;;;;;;5049616;28;20029;-47
2023/03/18 01:28:41;;;;;;;3.58;2.05;;;21.30;38.00;;;;;;5049093;28;20040;-50
2023/03/18 01:31:07;;;;;;;2.30;1.65;;;21.30;38.10;;;;;;5047845;28;20033;-51
2023/03/18 01:33:34;;;;;;;2.33;1.52;;;21.30;38.10;;;;;;5050321;28;20033;-49
2023/03/18 01:36:02;;;;;;;5.07;1.67;;;21.20;38.10;;;;;;5050119;28;20048;-52
2023/03/18 01:38:31;;;;;;;1.67;1.30;;;21.20;38.10;;;;;;5047655;28;20487;-54
2023/03/18 01:41:05;;;;;;;4.38;1.55;;;21.20;38.10;;;;;;5047466;28;20045;-53
2023/03/18 01:43:34;;;;;;;2.85;1.50;;;21.20;38.10;;;;;;5047952;28;20086;-54
2023/03/18 01:46:22;;;;;;;4.63;1.80;;;21.20;38.10;;;;;;5044905;28;20063;-53
2023/03/18 01:48:50;;;;;;;3.70;1.75;;;21.20;38.10;;;;;;5046963;28;20064;-54
2023/03/18 01:51:18;;;;;;;3.97;1.58;;;21.20;38.20;;;;;;5048000;28;20035;-54
2023/03/18 01:53:48;;;;;;;3.78;1.92;;;21.20;38.10;;;;;;5045918;28;20364;-50
2023/03/18 01:56:16;;;;;;;3.90;1.98;;;21.20;38.10;;;;;;5048764;28;20048;-53
2023/03/18 01:58:45;;;;;;;2.95;1.65;;;21.20;38.80;;;;;;5047228;28;20444;-50
2023/03/18 02:01:17;;;;;;;2.95;1.70;;;21.20;38.20;;;;;;5049540;28;20544;-53
2023/03/18 02:03:48;;;;;;;2.67;1.60;;;21.20;38.20;;;;;;5046901;28;20465;-54
2023/03/18 02:06:14;;;;;;;2.97;1.80;;;21.20;38.20;;;;;;5046686;28;20307;-53
2023/03/18 02:08:42;;;;;;;2.40;1.55;;;21.20;38.20;;;;;;5047365;28;20040;-56
2023/03/18 02:11:09;;;;;;;9.52;1.73;;;21.20;38.20;;;;;;5047185;28;20035;-55
2023/03/18 02:13:38;;;;;;;4.07;1.77;;;21.20;38.20;;;;;;5046988;28;20246;-52
2023/03/18 02:16:15;;;;;;;2.58;1.55;;;21.20;38.20;;;;;;5032468;28;20098;-49
2023/03/18 02:18:46;;;;;;;2.85;1.73;;;21.20;38.20;;;;;;5047392;28;20120;-51
2023/03/18 02:21:42;;;;;;;4.00;1.77;;;21.20;38.30;;;;;;5048750;28;21207;-56
2023/03/18 02:24:18;;;;;;;3.38;1.88;;;21.20;38.30;;;;;;5044907;28;20048;-54
2023/03/18 02:27:00;;;;;;;3.22;1.60;;;21.10;38.30;;;;;;5048263;28;20025;-53
2023/03/18 02:29:36;;;;;;;3.10;1.50;;;21.10;38.30;;;;;;5047530;28;20021;-53
2023/03/18 02:32:07;;;;;;;3.13;1.77;;;21.10;38.30;;;;;;5048748;28;20055;-50
2023/03/18 02:34:35;;;;;;;3.53;1.55;;;21.10;38.40;;;;;;5046193;28;20035;-52
2023/03/18 02:37:01;;;;;;;2.53;1.48;;;21.10;38.40;;;;;;5046859;28;20082;-51
2023/03/18 02:39:29;;;;;;;3.45;2.00;;;21.10;38.40;;;;;;5046532;28;20073;-55
2023/03/18 02:41:56;;;;;;;5.03;1.80;;;21.10;38.40;;;;;;5048185;28;20380;-52
2023/03/18 02:44:22;;;;;;;3.65;1.85;;;21.10;38.40;;;;;;5046311;28;20033;-50
2023/03/18 02:47:18;;;;;;;3.13;2.05;;;21.10;38.50;;;;;;5047597;28;20033;-51
2023/03/18 02:49:45;;;;;;;2.35;1.40;;;21.10;38.50;;;;;;5047090;28;20027;-52
2023/03/18 02:52:13;;;;;;;3.90;1.67;;;21.10;38.50;;;;;;5045029;28;20036;-54
2023/03/18 02:54:39;;;;;;;3.55;2.13;;;21.10;38.50;;;;;;5042964;28;20098;-50
2023/03/18 02:57:06;;;;;;;4.22;1.75;;;21.10;38.60;;;;;;5047515;28;20048;-52
2023/03/18 02:59:32;;;;;;;2.80;1.45;;;21.10;38.60;;;;;;5046328;28;20357;-54
2023/03/18 03:01:59;;;;;;;2.30;1.40;;;21.10;38.60;;;;;;5049071;28;20035;-52
2023/03/18 03:04:26;;;;;;;3.40;1.50;;;21.00;38.60;;;;;;5049183;28;20025;-55
2023/03/18 03:06:53;;;;;;;2.92;1.83;;;21.00;39.30;;;;;;5047671;28;20028;-51
2023/03/18 03:09:31;;;;;;;1.92;1.40;;;21.10;38.80;;;;;;5048684;28;20039;-54
2023/03/18 03:11:57;;;;;;;4.22;1.98;;;21.10;38.80;;;;;;5046445;28;20446;-50
2023/03/18 03:14:24;;;;;;;2.88;1.60;;;21.10;38.90;;;;;;5046381;28;20021;-54
2023/03/18 03:16:55;;;;;;;3.53;1.52;;;21.00;38.80;;;;;;5044430;28;20448;-51
2023/03/18 03:19:22;;;;;;;2.72;1.63;;;21.00;38.90;;;;;;5043741;28;20082;-49
2023/03/18 03:21:48;;;;;;;2.75;1.75;;;21.00;38.90;;;;;;5043674;28;20062;-52
2023/03/18 03:24:14;;;;;;;3.15;1.80;;;21.00;39.00;;;;;;5048650;28;20033;-52
2023/03/18 03:26:40;;;;;;;2.92;1.42;;;21.00;39.00;;;;;;5047298;28;20137;-54
2023/03/18 03:29:06;;;;;;;3.50;1.85;;;21.00;39.10;;;;;;5045726;28;20376;-50
2023/03/18 03:31:33;;;;;;;3.83;1.83;;;21.00;39.30;;;;;;5047962;28;20037;-51
2023/03/18 03:33:58;;;;;;;2.92;1.70;;;21.00;39.30;;;;;;5049117;28;20132;-48
2023/03/18 03:36:24;;;;;;;3.15;1.80;;;21.00;39.40;;;;;;5047778;28;20112;-52
2023/03/18 03:38:50;;;;;;;3.90;2.00;;;21.00;39.50;;;;;;5047050;28;20069;-51
2023/03/18 03:41:16;;;;;;;2.90;2.00;;;21.00;39.60;;;;;;5046720;28;20024;-51
2023/03/18 03:43:43;;;;;;;3.97;1.73;;;21.00;39.60;;;;;;5046127;28;20029;-52
2023/03/18 03:46:09;;;;;;;3.10;1.77;;;21.00;39.70;;;;;;5049989;28;20114;-51
2023/03/18 03:48:37;;;;;;;3.03;1.73;;;21.00;39.80;;;;;;5046258;28;20025;-57
2023/03/18 03:51:06;;;;;;;3.50;1.80;;;21.00;39.90;;;;;;5045915;28;20041;-53
2023/03/18 03:53:33;;;;;;;3.33;1.83;;;21.00;40.00;;;;;;5047905;28;20071;-53
2023/03/18 03:55:58;;;;;;;3.83;1.88;;;21.00;40.00;;;;;;5069728;28;20036;-53
2023/03/18 03:58:25;;;;;;;4.32;2.08;;;21.00;40.10;;;;;;5046854;28;20029;-51
2023/03/18 04:00:51;;;;;;;2.38;1.48;;;21.00;40.20;;;;;;5052150;28;20062;-51
2023/03/18 04:03:17;;;;;;;2.55;1.35;;;21.00;40.30;;;;;;5051972;28;20113;-51
2023/03/18 04:05:43;;;;;;;4.05;1.77;;;21.00;40.30;;;;;;5050631;28;20076;-52
2023/03/18 04:08:09;;;;;;;3.05;1.70;;;21.00;40.40;;;;;;5045972;28;20130;-52
2023/03/18 04:10:37;;;;;;;4.25;1.80;;;21.00;40.50;;;;;;5048547;28;20341;-50
2023/03/18 04:13:05;;;;;;;2.90;1.60;;;21.00;40.60;;;;;;5050076;28;20033;-50
2023/03/18 04:15:31;;;;;;;2.53;1.92;;;20.90;40.60;;;;;;5049943;28;20037;-52
2023/03/18 04:18:05;;;;;;;3.90;1.98;;;20.90;40.70;;;;;;5052631;28;20445;-53
2023/03/18 04:20:33;;;;;;;3.05;1.98;;;21.00;40.90;;;;;;5051927;28;20028;-54
2023/03/18 04:22:59;;;;;;;2.72;1.70;;;21.00;41.00;;;;;;5051292;28;20338;-50
2023/03/18 04:25:26;;;;;;;4.35;2.05;;;20.90;41.00;;;;;;5046422;28;20089;-51
2023/03/18 04:27:53;;;;;;;4.10;2.00;;;21.00;41.20;;;;;;5046216;28;20496;-51
2023/03/18 04:30:22;;;;;;;4.18;1.80;;;20.90;41.20;;;;;;5045516;28;20092;-55
2023/03/18 04:32:56;;;;;;;4.22;1.90;;;20.90;41.20;;;;;;5046808;28;20095;-51
2023/03/18 04:35:22;;;;;;;4.13;2.13;;;21.00;41.40;;;;;;5050813;28;20021;-52
2023/03/18 04:37:50;;;;;;;3.80;1.98;;;20.90;41.40;;;;;;5051531;28;20039;-53
2023/03/18 04:40:16;;;;;;;3.03;1.75;;;20.90;41.40;;;;;;5048403;28;20091;-54
2023/03/18 04:42:44;;;;;;;3.80;1.88;;;20.90;41.50;;;;;;5049552;28;20112;-54
2023/03/18 04:45:11;;;;;;;4.00;1.85;;;21.00;41.60;;;;;;5050410;28;20357;-51
2023/03/18 04:47:37;;;;;;;4.95;2.42;;;20.90;41.60;;;;;;5050345;28;20070;-52
2023/03/18 04:50:03;;;;;;;4.10;2.15;;;20.90;41.70;;;;;;5046033;28;20526;-51
2023/03/18 04:52:30;;;;;;;3.70;2.25;;;20.90;41.70;;;;;;5051504;28;20364;-52
2023/03/18 04:54:57;;;;;;;4.68;2.50;;;20.90;41.80;;;;;;5048208;28;20039;-52
2023/03/18 04:57:23;;;;;;;4.00;2.00;;;20.90;41.80;;;;;;5052791;28;20029;-51
2023/03/18 04:59:53;;;;;;;6.03;2.05;;;20.90;41.90;;;;;;5049738;28;20025;-51
2023/03/18 05:02:19;;;;;;;4.57;2.17;;;20.90;42.00;;;;;;5048170;28;20115;-53
2023/03/18 05:04:45;;;;;;;6.20;2.67;;;20.90;42.00;;;;;;5051098;28;20051;-53
2023/03/18 05:07:15;;;;;;;3.90;2.25;;;20.90;42.00;;;;;;5045160;28;20031;-56
2023/03/18 05:09:46;;;;;;;4.65;2.28;;;20.90;42.00;;;;;;5051682;28;20025;-53
2023/03/18 05:12:14;;;;;;;6.90;2.20;;;20.90;42.10;;;;;;5049942;28;20029;-56
2023/03/18 05:14:42;;;;;;;3.90;1.90;;;20.90;42.10;;;;;;5047493;28;20032;-53
2023/03/18 05:17:14;;;;;;;4.50;2.28;;;20.90;42.20;;;;;;5047606;28;20098;-51
2023/03/18 05:19:42;;;;;;;4.65;2.28;;;20.90;42.20;;;;;;5047224;28;20064;-53
2023/03/18 05:22:17;;;;;;;4.25;2.20;;;20.90;42.30;;;;;;5044396;28;20029;-52
2023/03/18 05:24:47;;;;;;;4.57;2.38;;;20.90;42.30;;;;;;5049648;28;20471;-50
2023/03/18 05:27:15;;;;;;;3.80;1.80;;;20.90;42.30;;;;;;5050396;28;20021;-54
2023/03/18 05:29:45;;;;;;;3.67;2.05;;;20.80;42.40;;;;;;5047176;28;20044;-51
2023/03/18 05:32:18;;;;;;;4.38;2.20;;;20.80;42.30;;;;;;5066368;28;20453;-52
2023/03/18 05:34:51;;;;;;;4.13;2.17;;;20.80;42.40;;;;;;5047407;28;20036;-54
2023/03/18 05:37:17;;;;;;;3.33;2.00;;;20.90;42.50;;;;;;5046789;28;20017;-52
2023/03/18 05:39:52;;;;;;;;;;;20.80;42.40;;;;;;5048072;28;20346;-55
2023/03/18 05:42:18;;;;;;;3.55;2.22;;;20.80;42.50;;;;;;5049631;28;20770;-55
2023/03/18 05:44:45;;;;;;;4.47;2.25;;;20.80;42.50;;;;;;5047142;28;20105;-52
2023/03/18 05:47:14;;;;;;;4.88;2.53;;;20.80;42.50;;;;;;5049790;28;20108;-54
2023/03/18 05:49:55;;;;;;;2.97;1.90;;;20.80;42.60;;;;;;5047190;28;20032;-52
2023/03/18 05:52:23;;;;;;;3.97;2.30;;;20.80;42.60;;;;;;5048362;28;20025;-51
2023/03/18 05:54:51;;;;;;;5.55;2.42;;;20.80;42.70;;;;;;5046658;28;20116;-53
2023/03/18 05:57:23;;;;;;;4.80;2.47;;;20.80;42.70;;;;;;5034797;28;20041;-52
2023/03/18 05:59:55;;;;;;;3.40;2.33;;;20.70;42.70;;;;;;5048557;28;20098;-51
2023/03/18 06:02:21;;;;;;;3.83;2.33;;;20.80;42.80;;;;;;5045190;28;20025;-50
2023/03/18 06:04:47;;;;;;;4.60;2.42;;;20.80;42.70;;;;;;5049013;28;20403;-51
2023/03/18 06:07:14;;;;;;;3.10;2.10;;;20.80;42.80;;;;;;5049662;28;20033;-51
2023/03/18 06:09:39;;;;;;;3.60;1.98;;;20.80;42.80;;;;;;5046962;28;20039;-57
2023/03/18 06:12:06;;;;;;;3.13;2.08;;;20.80;42.80;;;;;;5066124;28;20115;-51
2023/03/18 06:14:32;;;;;;;5.03;2.30;;;20.80;42.80;;;;;;5048247;28;20060;-53
2023/03/18 06:17:00;;;;;;;4.13;2.05;;;20.80;42.90;;;;;;5049882;28;20063;-53
2023/03/18 06:19:27;;;;;;;4.13;2.05;;;20.70;42.90;;;;;;5046109;28;20159;-57
2023/03/18 06:21:53;;;;;;;3.92;2.38;;;20.80;42.90;;;;;;5048198;28;20032;-54
2023/03/18 06:24:19;;;;;;;4.03;2.20;;;20.70;42.90;;;;;;5046258;28;20471;-54
2023/03/18 06:26:45;;;;;;;4.85;2.42;;;20.70;43.00;;;;;;5043805;28;20113;-53
2023/03/18 06:29:11;;;;;;;3.97;1.88;;;20.80;43.00;;;;;;5046364;28;20455;-54
2023/03/18 06:31:37;;;;;;;4.25;2.45;;;20.80;43.10;;;;;;5043752;28;20029;-51
2023/03/18 06:34:05;;;;;;;4.32;2.17;;;20.80;43.10;;;;;;5044960;28;20048;-53
2023/03/18 06:36:34;;;;;;;3.70;2.10;;;20.80;43.10;;;;;;5044491;28;20032;-50
2023/03/18 06:39:03;;;;;;;3.47;2.00;;;20.80;43.10;;;;;;5043920;28;20049;-55
2023/03/18 06:41:29;;;;;;;3.97;2.13;;;20.80;43.20;;;;;;5044295;28;20356;-53
2023/03/18 06:44:15;;;;;;;5.38;2.47;;;20.70;43.30;;;;;;5043639;28;20167;-53
2023/03/18 06:46:41;;;;;;;4.00;2.15;;;20.70;43.30;;;;;;5043851;28;20060;-53
2023/03/18 06:49:10;;;;;;;3.90;2.28;;;20.80;43.40;;;;;;5044847;28;20037;-53
2023/03/18 06:51:42;;;;;;;3.75;2.13;;;20.80;43.40;;;;;;5058572;28;20025;-55
2023/03/18 06:54:08;;;;;;;3.88;2.00;;;20.80;43.40;;;;;;5047406;28;20186;-55
2023/03/18 06:56:37;;;;;;;3.97;1.90;;;20.80;43.40;;;;;;5048290;28;20330;-49
2023/03/18 06:59:12;;;;;;;3.15;1.90;;;20.70;43.40;;;;;;5032641;28;20094;-55
2023/03/18 07:01:38;;;;;;;3.95;2.30;;;20.80;43.50;;;;;;5039931;28;20029;-51
2023/03/18 07:04:05;;;;;;;4.25;2.13;;;20.70;43.40;;;;;;5045794;28;20036;-50
2023/03/18 07:06:32;;;;;;;3.20;2.10;;;20.80;43.50;;;;;;5050417;28;20025;-53
2023/03/18 07:09:00;;;;;;;4.82;2.10;;;20.80;43.50;;;;;;5032706;28;20033;-53
2023/03/18 07:11:27;;;;;;;4.70;2.25;;;20.80;43.60;;;;;;5030713;28;20063;-55
2023/03/18 07:13:53;;;;;;;3.42;2.10;;;20.80;43.60;;;;;;5034978;28;20388;-56
2023/03/18 07:16:29;;;;;;;5.18;2.00;;;20.80;43.60;;;;;;5035140;28;21044;-53
2023/03/18 07:18:57;;;;;;;3.83;1.90;;;20.70;43.60;;;;;;5069015;28;20024;-54
2023/03/18 07:21:24;;;;;;;4.20;2.53;;;20.80;43.70;;;;;;5034298;28;20018;-53
2023/03/18 07:23:51;;;;;;;3.60;2.45;;;20.70;43.70;;;;;;5043644;28;20028;-54
2023/03/18 07:26:17;;;;;;;3.45;2.00;;;20.70;43.70;;;;;;5033346;28;20029;-55
2023/03/18 07:28:43;;;;;;;4.30;2.28;;;20.80;43.80;;;;;;5033374;28;20036;-51
2023/03/18 07:31:09;;;;;;;4.55;2.10;;;20.80;43.80;;;;;;5040724;28;20018;-55
2023/03/18 07:33:35;;;;;;;2.88;1.90;;;20.80;43.80;;;;;;5051766;28;20045;-51
2023/03/18 07:36:00;;;;;;;4.13;2.20;;;20.80;43.90;;;;;;5033397;28;20029;-51
2023/03/18 07:38:26;;;;;;;4.47;2.28;;;20.80;43.90;;;;;;5036487;28;20039;-54
2023/03/18 07:40:52;;;;;;;3.85;1.83;;;20.80;43.90;;;;;;5035475;28;20112;-54
2023/03/18 07:43:18;;;;;;;3.45;2.10;;;20.80;44.00;;;;;;5036825;28;20041;-54
2023/03/18 07:45:51;;;;;;;3.95;2.13;;;20.80;44.00;;;;;;5043933;28;20021;-53
2023/03/18 07:48:17;;;;;;;3.95;2.30;;;20.80;44.00;;;;;;5046610;28;20022;-50
2023/03/18 07:50:46;;;;;;;4.40;2.30;;;20.80;44.00;;;;;;5048484;28;20055;-50
2023/03/18 07:53:12;;;;;;;5.20;2.10;;;20.80;44.00;;;;;;5041611;28;20069;-56
2023/03/18 07:55:37;;;;;;;3.70;2.30;;;20.80;44.00;;;;;;5044356;28;20039;-55
2023/03/18 07:58:03;;;;;;;4.30;2.00;;;20.80;44.00;;;;;;5042811;28;20030;-54
2023/03/18 08:00:31;;;;;;;5.72;2.33;;;20.80;44.10;;;;;;5042861;28;20053;-53
2023/03/18 08:02:56;;;;;;;4.22;2.13;;;20.80;44.10;;;;;;5047716;28;20029;-55
2023/03/18 08:05:23;;;;;;;5.47;2.45;;;20.80;44.20;;;;;;5045332;28;20368;-51
2023/03/18 08:07:48;;;;;;;3.80;2.28;;;20.90;44.20;;;;;;5046643;28;20025;-53
2023/03/18 08:10:14;;;;;;;4.10;2.28;;;20.90;44.30;;;;;;5048290;28;20021;-51
2023/03/18 08:12:41;;;;;;;4.10;2.10;;;20.80;44.20;;;;;;5044737;28;20052;-52
2023/03/18 08:15:08;;;;;;;5.75;2.50;;;20.90;44.30;;;;;;5042697;28;20457;-52
2023/03/18 08:17:34;;;;;;;3.50;2.03;;;20.90;44.30;;;;;;5045895;28;20190;-51
2023/03/18 08:20:00;;;;;;;4.57;2.70;;;20.90;44.30;;;;;;5044042;28;20021;-53
2023/03/18 08:22:26;;;;;;;4.07;2.13;;;20.90;44.30;;;;;;5047428;28;20372;-51
2023/03/18 08:24:52;;;;;;;7.40;2.65;;;20.90;44.40;;;;;;5047448;28;20032;-51
2023/03/18 08:27:18;;;;;;;6.57;2.97;;;20.90;44.40;;;;;;5049927;28;20041;-53
2023/03/18 08:29:44;;;;;;;5.55;2.80;;;20.90;44.50;;;;;;5048747;28;20043;-54
2023/03/18 08:32:10;;;;;;;7.35;3.08;;;20.90;44.50;;;;;;5045785;28;20029;-54
2023/03/18 08:34:36;;;;;;;6.10;2.55;;;20.90;44.50;;;;;;5049803;28;20029;-50
2023/03/18 08:37:03;;;;;;;6.07;2.75;;;20.90;44.50;;;;;;5050152;28;20044;-55
2023/03/18 08:39:29;;;;;;;8.38;3.10;;;20.90;44.50;;;;;;5048765;28;20117;-56
2023/03/18 08:41:55;;;;;;;10.73;3.92;;;21.00;44.80;;;;;;5044682;28;20112;-53
2023/03/18 08:44:22;;;;;;;7.70;3.55;;;21.00;45.00;;;;;;5045269;28;20025;-54
2023/03/18 08:46:48;;;;;;;6.55;3.10;;;21.00;45.00;;;;;;5049791;28;20025;-49
2023/03/18 08:49:14;;;;;;;7.25;3.45;;;21.00;44.90;;;;;;5045149;28;20328;-53
2023/03/18 08:51:40;;;;;;;7.78;3.10;;;21.10;44.90;;;;;;5052906;28;20098;-52
2023/03/18 08:54:07;;;;;;;6.80;3.25;;;21.10;44.80;;;;;;5055845;28;20441;-52
2023/03/18 08:56:33;;;;;;;8.40;3.17;;;21.10;44.70;;;;;;5051343;28;20033;-51
2023/03/18 08:58:59;;;;;;;10.15;3.67;;;21.10;44.60;;;;;;5043884;28;20025;-51
2023/03/18 09:01:25;;;;;;;7.43;3.38;;;21.10;44.60;;;;;;5043981;28;20051;-53
2023/03/18 09:03:51;;;;;;;7.30;2.83;;;21.10;44.60;;;;;;5044055;28;20033;-53
2023/03/18 09:06:17;;;;;;;4.85;2.50;;;21.10;44.50;;;;;;5042276;28;20025;-51
2023/03/18 09:08:43;;;;;;;6.55;2.67;;;21.10;44.50;;;;;;5041687;28;20039;-50
2023/03/18 09:11:10;;;;;;;6.43;2.90;;;21.10;44.50;;;;;;5045338;28;20021;-54
2023/03/18 09:13:37;;;;;;;8.25;3.20;;;21.10;44.40;;;;;;5044132;28;20040;-48
2023/03/18 09:16:03;;;;;;;6.50;2.75;;;21.10;44.40;;;;;;5047843;28;20121;-55
2023/03/18 09:18:30;;;;;;;6.65;2.42;;;21.10;44.40;;;;;;5044069;28;20433;-49
2023/03/18 09:20:56;;;;;;;6.53;2.95;;;21.20;44.40;;;;;;5053173;28;20037;-49
2023/03/18 09:23:22;;;;;;;5.75;2.38;;;21.20;44.40;;;;;;5049338;28;20197;-47
2023/03/18 09:25:49;;;;;;;4.97;2.50;;;21.20;44.40;;;;;;5045465;28;20451;-53
2023/03/18 09:28:15;;;;;;;5.30;2.72;;;21.20;44.40;;;;;;5049552;28;20032;-52
2023/03/18 09:30:41;;;;;;;5.43;2.25;;;21.20;44.30;;;;;;5044707;28;20461;-52
2023/03/18 09:33:10;;;;;;;4.22;2.40;;;21.20;44.30;;;;;;5051292;28;20036;-51
2023/03/18 09:35:36;;;;;;;7.93;2.50;;;21.20;44.30;;;;;;5052741;28;20031;-51
2023/03/18 09:38:03;;;;;;;5.45;2.13;;;21.20;44.20;;;;;;5054549;28;20079;-49
2023/03/18 09:40:34;;;;;;;4.30;2.00;;;21.20;44.20;;;;;;5054144;28;20059;-51
2023/03/18 09:43:19;;;;;;;4.40;2.05;;;21.20;44.10;;;;;;5052769;28;20029;-50
2023/03/18 09:46:00;;;;;;;4.03;2.15;;;21.20;44.00;;;;;;5054329;28;20025;-50
2023/03/18 09:49:03;;;;;;;4.80;2.28;;;21.20;43.90;;;;;;5052108;28;20033;-51
2023/03/18 09:51:49;;;;;;;3.28;1.70;;;21.30;43.90;;;;;;5052614;28;20029;-52
2023/03/18 09:54:30;;;;;;;3.83;1.90;;;21.30;43.90;;;;;;5052663;28;20044;-52
2023/03/18 09:56:57;;;;;;;3.60;2.10;;;21.30;43.90;;;;;;5054022;28;20158;-50
2023/03/18 09:59:29;;;;;;;4.05;1.95;;;21.30;43.80;;;;;;5053530;28;20033;-53
2023/03/18 10:01:57;;;;;;;3.78;1.60;;;21.30;43.80;;;;;;5051663;28;20151;-50
2023/03/18 10:04:27;;;;;;;3.60;1.92;;;21.20;43.70;;;;;;5052315;28;20029;-54
2023/03/18 10:07:00;;;;;;;4.80;1.90;;;21.30;43.80;;;;;;5053504;28;20016;-53
2023/03/18 10:09:45;;;;;;;3.00;1.70;;;21.30;43.70;;;;;;5038141;28;20367;-52
2023/03/18 10:12:13;;;;;;;4.30;1.98;;;21.30;43.60;;;;;;5053223;28;20454;-53
2023/03/18 10:14:48;;;;;;;3.80;1.98;;;21.30;43.60;;;;;;5053364;28;20047;-51
2023/03/18 10:17:21;;;;;;;4.15;1.60;;;21.30;43.60;;;;;;5053601;28;20171;-51
2023/03/18 10:20:03;;;;;;;3.40;1.40;;;21.30;43.50;;;;;;5055590;28;20036;-51
2023/03/18 10:22:49;;;;;;;2.70;1.55;;;21.30;43.50;;;;;;5052566;28;20048;-53
2023/03/18 10:25:24;;;;;;;3.25;1.20;;;21.30;43.40;;;;;;5052640;28;20352;-51
2023/03/18 10:28:24;;;;;;;2.28;1.50;;;21.30;43.40;;;;;;5053478;28;20078;-54
2023/03/18 10:31:01;;;;;;;2.55;1.50;;;21.30;44.00;;;;;;5051326;28;20448;-53
2023/03/18 10:33:49;;;;;;;4.13;1.38;;;21.30;43.30;;;;;;5052080;28;20099;-52
2023/03/18 10:36:19;;;;;;;1.50;1.15;;;21.30;43.30;;;;;;5043574;28;20460;-53
2023/03/18 10:38:50;;;;;;;2.28;1.33;;;21.30;43.30;;;;;;5045171;28;20028;-52
2023/03/18 10:41:29;;;;;;;3.65;1.70;;;21.30;43.40;;;;;;5046078;28;20115;-50
2023/03/18 10:43:56;;;;;;;4.18;1.83;;;21.30;43.70;;;;;;5070422;28;20037;-51
2023/03/18 10:46:24;;;;;;;3.63;1.80;;;21.40;43.90;;;;;;5051903;28;20059;-55
2023/03/18 10:49:00;;;;;;;3.42;1.50;;;21.40;44.10;;;;;;5053216;28;20322;-51
2023/03/18 10:51:51;;;;;;;2.72;1.70;;;21.40;44.30;;;;;;5041838;28;20035;-46
2023/03/18 10:54:35;;;;;;;4.13;2.10;;;21.40;44.40;;;;;;5050732;28;20321;-48
2023/03/18 10:57:01;;;;;;;3.95;1.88;;;21.40;44.40;;;;;;5052067;28;20444;-51
2023/03/18 10:59:28;;;;;;;6.03;2.13;;;21.50;44.50;;;;;;5052327;28;20033;-50
2023/03/18 11:02:06;;;;;;;4.15;2.10;;;21.50;44.60;;;;;;5048747;28;20055;-50
2023/03/18 11:04:53;;;;;;;4.55;2.05;;;21.50;44.60;;;;;;5049453;28;20029;-47
2023/03/18 11:07:30;;;;;;;3.63;1.80;;;21.50;44.60;;;;;;5053698;28;20017;-49
2023/03/18 11:10:12;;;;;;;2.70;1.88;;;21.50;44.60;;;;;;5039590;28;20082;-47
2023/03/18 11:12:38;;;;;;;3.03;1.70;;;21.50;44.60;;;;;;5046978;28;20036;-50
2023/03/18 11:15:09;;;;;;;3.33;1.80;;;21.60;44.70;;;;;;5052366;28;20025;-49
2023/03/18 11:17:39;;;;;;;5.00;1.90;;;21.60;44.70;;;;;;5042932;28;20112;-52
2023/03/18 11:20:31;;;;;;;2.95;1.63;;;21.60;44.60;;;;;;5044799;28;20039;-50
2023/03/18 11:23:11;;;;;;;4.03;1.50;;;21.60;44.60;;;;;;5043984;28;20028;-51
2023/03/18 11:25:37;;;;;;;2.53;1.58;;;21.70;44.60;;;;;;5044233;28;20041;-53
2023/03/18 11:28:05;;;;;;;2.42;1.25;;;21.70;44.60;;;;;;5047132;28;20174;-49
2023/03/18 11:30:51;;;;;;;2.60;1.30;;;21.70;44.50;;;;;;5056166;28;20368;-53
2023/03/18 11:33:18;;;;;;;2.17;1.50;;;21.70;44.50;;;;;;5055320;28;20326;-47
2023/03/18 11:35:52;;;;;;;3.35;1.35;;;21.80;44.50;;;;;;5054354;28;20040;-51
2023/03/18 11:38:31;;;;;;;3.33;1.50;;;21.80;44.50;;;;;;5060525;28;20504;-48
2023/03/18 11:41:17;;;;;;;2.85;1.40;;;21.80;44.40;;;;;;5076687;28;20028;-52
2023/03/18 11:43:55;;;;;;;2.67;1.17;;;21.80;44.50;;;;;;5057941;28;20053;-52
2023/03/18 11:46:25;;;;;;;4.15;1.63;;;21.80;44.40;;;;;;5054913;28;20127;-50
2023/03/18 11:48:51;;;;;;;1.92;1.27;;;21.90;44.50;;;;;;5057261;28;20037;-52
2023/03/18 11:51:38;;;;;;;2.72;1.30;;;21.90;44.40;;;;;;5051898;28;20089;-55
2023/03/18 11:54:28;;;;;;;4.10;1.40;;;21.90;44.30;;;;;;5049300;28;20407;-48
2023/03/18 11:57:03;;;;;;;4.47;1.27;;;22.00;44.30;;;;;;5040058;28;20033;-48
2023/03/18 11:59:53;;;;;;;4.20;1.42;;;22.00;44.20;;;;;;5038863;28;20163;-49
2023/03/18 12:02:28;;;;;;;3.50;1.20;;;22.00;44.00;;;;;;5046131;28;20491;-53
2023/03/18 12:05:20;;;;;;;2.75;1.13;;;22.00;43.80;;;;;;5037890;28;20025;-51
2023/03/18 12:08:04;;;;;;;2.42;1.30;;;22.00;43.60;;;;;;5042575;28;20052;-48
2023/03/18 12:10:37;;;;;;;2.88;1.20;;;22.00;43.40;;;;;;5077896;28;20036;-54
2023/03/18 12:13:10;;;;;;;2.00;1.10;;;22.00;43.20;;;;;;5078133;28;20036;-52
2023/03/18 12:15:53;;;;;;;2.03;0.80;;;22.10;43.10;;;;;;5077739;28;20056;-54
2023/03/18 12:18:59;;;;;;;2.22;1.05;;;22.10;42.90;;;;;;5075296;28;20112;-52
2023/03/18 12:21:40;;;;;;;2.30;0.98;;;22.10;42.70;;;;;;5077936;28;20059;-52
2023/03/18 12:24:11;;;;;;;1.75;0.90;;;22.10;42.50;;;;;;5077526;28;20047;-50
2023/03/18 12:26:54;;;;;;;3.88;1.00;;;22.10;42.50;;;;;;5077657;28;20060;-49
2023/03/18 12:29:54;;;;;;;2.38;1.00;;;22.10;42.40;;;;;;5077246;28;20082;-48
2023/03/18 12:32:38;;;;;;;1.77;0.90;;;22.10;42.40;;;;;;5073943;28;20028;-51
2023/03/18 12:35:10;;;;;;;3.35;1.02;;;22.10;42.30;;;;;;5056918;28;20033;-51
2023/03/18 12:37:42;;;;;;;2.58;1.00;;;22.10;42.30;;;;;;5060504;28;20121;-51
2023/03/18 12:40:45;;;;;;;1.90;0.73;;;22.10;42.30;;;;;;5077411;28;20067;-51
2023/03/18 12:43:30;;;;;;;2.13;0.90;;;22.10;42.20;;;;;;5067452;28;20164;-53
2023/03/18 12:46:03;;;;;;;1.40;0.80;;;22.10;42.20;;;;;;5077061;28;20028;-53
2023/03/18 12:48:34;;;;;;;1.17;0.70;;;22.10;42.20;;;;;;5077201;28;20120;-53
2023/03/18 12:51:13;;;;;;;1.88;1.00;;;22.10;42.20;;;;;;5076913;28;20424;-52
2023/03/18 12:53:52;;;;;;;2.40;0.80;;;22.00;42.10;;;;;;5059010;28;20472;-51
2023/03/18 12:56:24;;;;;;;1.42;0.70;;;22.10;42.10;;;;;;5037087;28;20045;-50
2023/03/18 12:59:34;;;;;;;1.88;0.90;;;22.10;42.00;;;;;;5069630;28;20364;-51
2023/03/18 13:02:03;;;;;;;1.17;0.80;;;22.10;42.00;;;;;;5071490;28;20036;-50
2023/03/18 13:04:32;;;;;;;1.25;0.80;;;22.10;41.90;;;;;;5075737;28;20035;-52